createdAt,value
2023-05-20T00:01:23.926Z,102188.84
2023-05-20T00:03:51.830Z,102190.63
2023-05-20T00:06:19.709Z,102192.72
2023-05-20T00:08:48.918Z,102190.22
2023-05-20T00:11:16.755Z,102191.03
2023-05-20T00:13:44.672Z,102181.97
2023-05-20T00:16:13.079Z,102186.31
2023-05-20T00:18:41.654Z,102189.63
2023-05-20T00:21:09.461Z,102186.13
2023-05-20T00:23:37.288Z,102185.59
2023-05-20T00:26:06.686Z,102190.00
2023-05-20T00:28:34.486Z,102186.19
2023-05-20T00:31:02.267Z,102192.28
2023-05-20T00:33:30.120Z,102186.97
2023-05-20T00:35:57.897Z,102183.69
2023-05-20T00:38:25.680Z,102186.47
2023-05-20T00:40:53.599Z,102178.28
2023-05-20T00:43:25.314Z,102188.50
2023-05-20T00:45:54.119Z,102188.53
2023-05-20T00:48:23.118Z,102184.81
2023-05-20T00:50:51.677Z,102185.78
2023-05-20T00:53:19.911Z,102190.31
2023-05-20T00:55:48.200Z,102185.09
2023-05-20T00:58:15.998Z,102185.50
2023-05-20T01:00:45.483Z,102190.63
2023-05-20T01:03:13.706Z,102184.81
2023-05-20T01:05:42.356Z,102178.53
2023-05-20T01:08:10.674Z,102179.72
2023-05-20T01:10:42.933Z,102177.00
2023-05-20T01:13:16.180Z,102179.00
2023-05-20T01:15:48.514Z,102179.69
2023-05-20T01:18:18.570Z,102187.03
2023-05-20T01:20:50.449Z,102172.28
2023-05-20T01:23:19.682Z,102177.63
2023-05-20T01:25:47.589Z,102176.88
2023-05-20T01:28:17.897Z,102178.34
2023-05-20T01:30:53.791Z,102174.75
2023-05-20T01:33:26.425Z,102170.09
2023-05-20T01:35:54.506Z,102173.00
2023-05-20T01:38:25.932Z,102165.69
2023-05-20T01:40:55.879Z,102174.63
2023-05-20T01:43:25.658Z,102173.75
2023-05-20T01:45:53.596Z,102170.28
2023-05-20T01:48:22.535Z,102162.44
2023-05-20T01:50:50.465Z,102163.84
2023-05-20T01:53:18.251Z,102159.44
2023-05-20T01:55:47.638Z,102167.47
2023-05-20T01:58:15.480Z,102160.34
2023-05-20T02:00:43.424Z,102161.38
2023-05-20T02:03:11.283Z,102147.94
2023-05-20T02:05:40.111Z,102159.63
2023-05-20T02:08:07.946Z,102154.28
2023-05-20T02:10:35.794Z,102149.13
2023-05-20T02:13:05.149Z,102150.78
2023-05-20T02:15:33.769Z,102152.53
2023-05-20T02:18:02.428Z,102149.00
2023-05-20T02:20:30.273Z,102144.59
2023-05-20T02:22:57.964Z,102150.97
2023-05-20T02:25:25.870Z,102145.09
2023-05-20T02:27:53.836Z,102146.91
2023-05-20T02:30:23.047Z,102143.22
2023-05-20T02:32:51.675Z,102142.22
2023-05-20T02:35:19.454Z,102147.88
2023-05-20T02:37:48.328Z,102143.66
2023-05-20T02:40:17.091Z,102141.66
2023-05-20T02:42:44.849Z,102143.47
2023-05-20T02:45:12.532Z,102141.66
2023-05-20T02:47:42.059Z,102141.03
2023-05-20T02:50:11.532Z,102130.22
2023-05-20T02:52:39.865Z,102126.75
2023-05-20T02:55:08.399Z,102125.63
2023-05-20T02:57:38.166Z,102126.53
2023-05-20T03:00:11.457Z,102115.47
2023-05-20T03:02:40.952Z,102121.16
2023-05-20T03:05:10.799Z,102122.22
2023-05-20T03:07:38.653Z,102116.97
2023-05-20T03:10:09.304Z,102120.78
2023-05-20T03:12:39.812Z,102119.72
2023-05-20T03:15:09.241Z,102115.38
2023-05-20T03:17:37.913Z,102123.28
2023-05-20T03:20:09.098Z,102119.47
2023-05-20T03:22:37.495Z,102122.63
2023-05-20T03:25:06.330Z,102121.63
2023-05-20T03:27:36.806Z,102118.72
2023-05-20T03:30:05.563Z,102118.72
2023-05-20T03:32:33.494Z,102121.25
2023-05-20T03:35:01.898Z,102123.13
2023-05-20T03:37:31.153Z,102118.38
2023-05-20T03:39:58.994Z,102120.53
2023-05-20T03:42:26.708Z,102114.50
2023-05-20T03:44:55.262Z,102115.44
2023-05-20T03:47:23.483Z,102113.34
2023-05-20T03:49:51.333Z,102108.63
2023-05-20T03:52:19.520Z,102108.75
2023-05-20T03:54:48.904Z,102098.81
2023-05-20T03:57:16.886Z,102103.97
2023-05-20T03:59:44.647Z,102098.56
2023-05-20T04:02:12.644Z,102105.47
2023-05-20T04:04:44.072Z,102104.69
2023-05-20T04:07:12.282Z,102107.47
2023-05-20T04:09:41.245Z,102109.38
2023-05-20T04:12:11.383Z,102108.69
2023-05-20T04:14:42.156Z,102108.28
2023-05-20T04:17:10.499Z,102103.84
2023-05-20T04:19:39.129Z,102103.41
2023-05-20T04:22:07.290Z,102112.75
2023-05-20T04:24:35.469Z,102112.41
2023-05-20T04:27:03.173Z,102110.06
2023-05-20T04:29:34.178Z,102119.97
2023-05-20T04:32:03.680Z,102112.56
2023-05-20T04:34:35.391Z,102113.31
2023-05-20T04:37:03.770Z,102114.03
2023-05-20T04:39:31.820Z,102114.44
2023-05-20T04:41:59.810Z,102118.97
2023-05-20T04:44:28.360Z,102114.56
2023-05-20T04:46:58.121Z,102116.31
2023-05-20T04:49:26.457Z,102118.28
2023-05-20T04:51:55.677Z,102111.31
2023-05-20T04:54:23.501Z,102113.69
2023-05-20T04:56:51.282Z,102111.06
2023-05-20T04:59:19.258Z,102113.94
2023-05-20T05:01:47.328Z,102111.31
2023-05-20T05:04:16.756Z,102107.41
2023-05-20T05:06:44.687Z,102106.31
2023-05-20T05:09:13.776Z,102097.50
2023-05-20T05:11:43.380Z,102097.78
2023-05-20T05:14:11.587Z,102098.69
2023-05-20T05:16:39.865Z,102085.69
2023-05-20T05:19:08.699Z,102090.97
2023-05-20T05:21:40.662Z,102090.38
2023-05-20T05:24:09.074Z,102081.34
2023-05-20T05:26:37.554Z,102086.19
2023-05-20T05:29:05.344Z,102084.16
2023-05-20T05:31:33.592Z,102081.19
2023-05-20T05:34:01.654Z,102086.31
2023-05-20T05:36:29.528Z,102078.41
2023-05-20T05:38:59.020Z,102084.25
2023-05-20T05:41:26.774Z,102084.06
2023-05-20T05:43:55.684Z,102082.63
2023-05-20T05:46:23.648Z,102085.66
2023-05-20T05:48:51.840Z,102082.22
2023-05-20T05:51:20.006Z,102079.13
2023-05-20T05:53:49.668Z,102083.81
2023-05-20T05:56:18.730Z,102080.19
2023-05-20T05:58:48.285Z,102076.13
2023-05-20T06:01:17.039Z,102085.47
2023-05-20T06:03:45.532Z,102087.69
2023-05-20T06:06:13.810Z,102086.19
2023-05-20T06:08:41.878Z,102080.19
2023-05-20T06:11:11.069Z,102079.13
2023-05-20T06:13:40.592Z,102078.09
2023-05-20T06:16:09.193Z,102065.53
2023-05-20T06:18:37.201Z,102077.25
2023-05-20T06:21:06.623Z,102073.06
2023-05-20T06:23:34.763Z,102077.47
2023-05-20T06:26:06.284Z,102064.72
2023-05-20T06:28:34.730Z,102063.38
2023-05-20T06:31:04.904Z,102066.19
2023-05-20T06:33:35.238Z,102063.91
2023-05-20T06:36:08.370Z,102052.72
2023-05-20T06:38:36.174Z,102064.38
2023-05-20T06:41:04.411Z,102053.69
2023-05-20T06:43:33.935Z,102050.47
2023-05-20T06:46:20.647Z,102041.28
2023-05-20T06:48:55.032Z,102040.25
2023-05-20T06:51:23.548Z,102047.78
2023-05-20T06:53:52.068Z,102046.00
2023-05-20T06:56:36.170Z,102056.53
2023-05-20T06:59:05.695Z,102058.63
2023-05-20T07:01:37.185Z,102046.03
2023-05-20T07:04:06.088Z,102044.97
2023-05-20T07:06:34.605Z,102038.22
2023-05-20T07:09:02.683Z,102044.94
2023-05-20T07:11:30.636Z,102054.34
2023-05-20T07:13:58.868Z,102050.97
2023-05-20T07:16:27.622Z,102042.94
2023-05-20T07:18:59.093Z,102039.22
2023-05-20T07:21:27.003Z,102040.75
2023-05-20T07:24:13.301Z,102045.31
2023-05-20T07:26:41.078Z,102052.13
2023-05-20T07:29:10.183Z,102037.97
2023-05-20T07:31:39.623Z,102037.97
2023-05-20T07:34:08.999Z,102029.91
2023-05-20T07:36:37.841Z,102026.03
2023-05-20T07:39:13.181Z,102038.00
2023-05-20T07:41:42.986Z,102035.94
2023-05-20T07:44:11.283Z,102027.69
2023-05-20T07:46:41.796Z,102030.59
2023-05-20T07:49:12.407Z,102026.03
2023-05-20T07:51:41.086Z,102023.06
2023-05-20T07:54:08.966Z,102025.31
2023-05-20T07:56:38.635Z,102024.88
2023-05-20T07:59:09.841Z,102025.00
2023-05-20T08:01:43.692Z,102014.50
2023-05-20T08:04:15.075Z,102018.56
2023-05-20T08:06:44.906Z,102030.56
2023-05-20T08:09:21.117Z,102016.63
2023-05-20T08:11:52.740Z,102025.69
2023-05-20T08:14:23.708Z,102027.50
2023-05-20T08:16:55.092Z,102022.28
2023-05-20T08:19:25.032Z,102016.84
2023-05-20T08:21:53.625Z,102027.13
2023-05-20T08:24:21.410Z,102025.50
2023-05-20T08:26:49.945Z,102019.56
2023-05-20T08:29:19.435Z,102025.94
2023-05-20T08:31:47.411Z,102018.03
2023-05-20T08:34:16.518Z,102010.44
2023-05-20T08:36:46.076Z,102016.03
2023-05-20T08:39:13.999Z,102021.75
2023-05-20T08:41:42.309Z,102017.66
2023-05-20T08:44:11.915Z,102024.38
2023-05-20T08:46:41.628Z,102020.00
2023-05-20T08:49:09.715Z,102022.44
2023-05-20T08:51:38.963Z,102012.66
2023-05-20T08:54:09.633Z,102011.56
2023-05-20T08:56:39.268Z,102015.06
2023-05-20T08:59:07.325Z,102017.31
2023-05-20T09:01:41.314Z,102026.44
2023-05-20T09:04:09.749Z,102023.84
2023-05-20T09:06:44.124Z,102020.63
2023-05-20T09:09:13.983Z,102020.91
2023-05-20T09:11:42.903Z,102017.38
2023-05-20T09:14:11.001Z,102014.88
2023-05-20T09:16:40.972Z,102022.28
2023-05-20T09:19:09.813Z,102012.25
2023-05-20T09:21:38.977Z,102026.91
2023-05-20T09:24:07.688Z,102020.22
2023-05-20T09:26:36.956Z,102016.19
2023-05-20T09:29:05.073Z,102022.78
2023-05-20T09:31:34.076Z,102014.41
2023-05-20T09:34:02.156Z,102017.09
2023-05-20T09:36:31.841Z,102010.91
2023-05-20T09:39:05.043Z,102011.78
2023-05-20T09:41:41.778Z,102016.81
2023-05-20T09:44:10.490Z,102020.75
2023-05-20T09:46:39.881Z,102033.84
2023-05-20T09:49:08.138Z,102028.41
2023-05-20T09:51:36.890Z,102030.06
2023-05-20T09:54:08.519Z,102018.19
2023-05-20T09:56:38.440Z,102006.31
2023-05-20T09:59:06.918Z,102015.47
2023-05-20T10:01:34.836Z,102020.84
2023-05-20T10:04:05.365Z,102018.66
2023-05-20T10:06:57.430Z,102019.47
2023-05-20T10:09:38.724Z,102009.44
2023-05-20T10:12:21.899Z,102010.97
2023-05-20T10:15:01.148Z,102014.38
2023-05-20T10:17:41.405Z,102012.84
2023-05-20T10:20:11.825Z,102007.97
2023-05-20T10:22:41.019Z,102009.53
2023-05-20T10:25:14.121Z,102002.09
2023-05-20T10:27:47.937Z,102003.41
2023-05-20T10:30:20.526Z,102004.50
2023-05-20T10:32:57.087Z,102004.19
2023-05-20T10:35:27.447Z,101991.34
2023-05-20T10:37:56.476Z,101995.72
2023-05-20T10:40:24.367Z,101995.81
2023-05-20T10:42:54.634Z,101990.03
2023-05-20T10:45:30.352Z,101996.72
2023-05-20T10:47:59.714Z,101993.78
2023-05-20T10:50:29.192Z,101983.88
2023-05-20T10:53:05.114Z,101981.75
2023-05-20T10:55:38.536Z,101994.38
2023-05-20T10:58:08.103Z,101987.41
2023-05-20T11:00:37.589Z,101990.34
2023-05-20T11:03:06.912Z,101981.59
2023-05-20T11:05:35.601Z,101980.25
2023-05-20T11:08:10.746Z,101974.25
2023-05-20T11:10:49.015Z,101976.66
2023-05-20T11:13:19.288Z,101973.13
2023-05-20T11:15:47.533Z,101968.16
2023-05-20T11:18:16.945Z,101976.66
2023-05-20T11:20:47.878Z,101974.72
2023-05-20T11:23:16.783Z,101969.19
2023-05-20T11:25:44.638Z,101975.06
2023-05-20T11:28:14.763Z,101969.56
2023-05-20T11:30:44.331Z,101971.34
2023-05-20T11:33:13.899Z,101976.63
2023-05-20T11:35:46.670Z,101976.25
2023-05-20T11:38:14.826Z,101975.06
2023-05-20T11:40:50.498Z,101973.47
2023-05-20T11:43:20.894Z,101963.44
2023-05-20T11:46:00.052Z,101969.56
2023-05-20T11:48:28.609Z,101952.72
2023-05-20T11:50:59.961Z,101951.47
2023-05-20T11:53:29.835Z,101943.56
2023-05-20T11:55:59.855Z,101929.19
2023-05-20T11:58:30.576Z,101928.81
2023-05-20T12:01:13.334Z,101926.25
2023-05-20T12:03:49.328Z,101923.63
2023-05-20T12:06:19.032Z,101913.38
2023-05-20T12:08:47.738Z,101915.31
2023-05-20T12:11:16.109Z,101924.94
2023-05-20T12:13:46.711Z,101906.34
2023-05-20T12:16:16.718Z,101907.94
2023-05-20T12:18:45.070Z,101905.69
2023-05-20T12:21:13.614Z,101897.13
2023-05-20T12:23:42.021Z,101900.06
2023-05-20T12:26:10.230Z,101899.78
2023-05-20T12:28:38.457Z,101895.56
2023-05-20T12:31:06.932Z,101892.34
2023-05-20T12:33:36.911Z,101895.22
2023-05-20T12:36:06.350Z,101900.66
2023-05-20T12:38:34.868Z,101887.59
2023-05-20T12:41:03.183Z,101890.38
2023-05-20T12:43:31.050Z,101891.41
2023-05-20T12:45:59.000Z,101886.75
2023-05-20T12:48:26.780Z,101879.25
2023-05-20T12:50:56.056Z,101886.84
2023-05-20T12:53:23.961Z,101883.63
2023-05-20T12:55:51.867Z,101885.28
2023-05-20T12:58:19.674Z,101878.25
2023-05-20T13:00:47.969Z,101890.69
2023-05-20T13:03:15.971Z,101892.06
2023-05-20T13:05:44.014Z,101882.56
2023-05-20T13:08:14.670Z,101898.25
2023-05-20T13:10:42.513Z,101880.66
2023-05-20T13:13:10.996Z,101884.56
2023-05-20T13:15:39.691Z,101867.63
2023-05-20T13:18:08.362Z,101858.66
2023-05-20T13:20:37.039Z,101855.88
2023-05-20T13:23:05.128Z,101860.00
2023-05-20T13:25:34.550Z,101856.59
2023-05-20T13:28:02.594Z,101863.47
2023-05-20T13:30:31.164Z,101858.22
2023-05-20T13:32:59.160Z,101859.47
2023-05-20T13:35:27.028Z,101862.69
2023-05-20T13:37:55.059Z,101859.91
2023-05-20T13:40:23.720Z,101854.84
2023-05-20T13:42:53.732Z,101852.44
2023-05-20T13:45:22.478Z,101853.91
2023-05-20T13:47:50.382Z,101852.22
2023-05-20T13:50:18.221Z,101837.56
2023-05-20T13:52:46.265Z,101838.91
2023-05-20T13:55:14.020Z,101831.50
2023-05-20T13:57:42.105Z,101831.66
2023-05-20T14:00:12.773Z,101830.81
2023-05-20T14:02:41.136Z,101820.94
2023-05-20T14:05:09.492Z,101816.81
2023-05-20T14:07:37.896Z,101822.41
2023-05-20T14:10:06.829Z,101820.84
2023-05-20T14:12:34.988Z,101818.03
2023-05-20T14:15:02.747Z,101815.66
2023-05-20T14:17:31.983Z,101816.16
2023-05-20T14:20:00.652Z,101803.41
2023-05-20T14:22:28.533Z,101807.28
2023-05-20T14:24:56.572Z,101803.94
2023-05-20T14:27:24.332Z,101798.97
2023-05-20T14:29:52.667Z,101800.78
2023-05-20T14:32:20.448Z,101790.88
2023-05-20T14:34:50.050Z,101794.38
2023-05-20T14:37:18.532Z,101800.25
2023-05-20T14:39:46.383Z,101792.91
2023-05-20T14:42:14.162Z,101805.16
2023-05-20T14:44:41.874Z,101790.81
2023-05-20T14:47:09.849Z,101790.66
2023-05-20T14:49:39.225Z,101777.88
2023-05-20T14:52:08.402Z,101789.69
2023-05-20T14:54:36.248Z,101770.81
2023-05-20T14:57:06.267Z,101779.09
2023-05-20T14:59:34.317Z,101771.34
2023-05-20T15:02:02.307Z,101781.88
2023-05-20T15:04:31.406Z,101773.41
2023-05-20T15:06:59.485Z,101773.06
2023-05-20T15:09:28.842Z,101784.22
2023-05-20T15:11:56.718Z,101777.13
2023-05-20T15:14:24.494Z,101784.69
2023-05-20T15:16:52.321Z,101790.41
2023-05-20T15:19:20.308Z,101787.94
2023-05-20T15:21:49.526Z,101779.34
2023-05-20T15:24:17.321Z,101784.09
2023-05-20T15:26:46.631Z,101783.22
2023-05-20T15:29:14.580Z,101781.97
2023-05-20T15:31:42.334Z,101788.44
2023-05-20T15:34:10.226Z,101780.47
2023-05-20T15:36:38.028Z,101783.22
2023-05-20T15:39:05.927Z,101782.31
2023-05-20T15:41:33.967Z,101782.97
2023-05-20T15:44:03.382Z,101780.34
2023-05-20T15:46:31.367Z,101781.13
2023-05-20T15:48:59.583Z,101777.78
2023-05-20T15:51:27.432Z,101778.16
2023-05-20T15:53:55.200Z,101774.91
2023-05-20T15:56:23.048Z,101769.81
2023-05-20T15:58:51.069Z,101771.81
2023-05-20T16:01:22.014Z,101778.25
2023-05-20T16:03:50.030Z,101765.84
2023-05-20T16:06:18.530Z,101765.19
2023-05-20T16:08:46.340Z,101756.75
2023-05-20T16:11:14.207Z,101764.56
2023-05-20T16:13:42.015Z,101767.44
2023-05-20T16:16:09.848Z,101769.31
2023-05-20T16:18:39.131Z,101771.78
2023-05-20T16:21:08.038Z,101760.59
2023-05-20T16:23:35.995Z,101777.63
2023-05-20T16:26:03.830Z,101774.28
2023-05-20T16:28:31.671Z,101769.78
2023-05-20T16:30:59.617Z,101765.06
2023-05-20T16:33:27.501Z,101763.31
2023-05-20T16:35:56.900Z,101750.88
2023-05-20T16:38:24.732Z,101765.06
2023-05-20T16:40:52.590Z,101752.91
2023-05-20T16:43:20.368Z,101759.53
2023-05-20T16:45:48.631Z,101759.03
2023-05-20T16:48:16.456Z,101768.38
2023-05-20T16:50:44.274Z,101768.69
2023-05-20T16:53:16.245Z,101774.41
2023-05-20T16:55:44.254Z,101771.34
2023-05-20T16:58:12.067Z,101786.53
2023-05-20T17:00:39.784Z,101783.56
2023-05-20T17:03:07.627Z,101784.94
2023-05-20T17:05:35.932Z,101782.75
2023-05-20T17:08:03.692Z,101789.25
2023-05-20T17:10:33.261Z,101791.47
2023-05-20T17:13:01.542Z,101800.22
2023-05-20T17:15:29.428Z,101809.28
2023-05-20T17:17:57.295Z,101803.88
2023-05-20T17:20:25.174Z,101811.38
2023-05-20T17:22:53.119Z,101813.22
2023-05-20T17:25:21.487Z,101816.84
2023-05-20T17:27:50.758Z,101815.53
2023-05-20T17:30:18.777Z,101816.84
2023-05-20T17:32:46.744Z,101818.84
2023-05-20T17:35:14.760Z,101816.22
2023-05-20T17:37:42.737Z,101813.50
2023-05-20T17:40:12.565Z,101808.34
2023-05-20T17:42:41.019Z,101805.00
2023-05-20T17:45:11.414Z,101805.00
2023-05-20T17:47:39.431Z,101806.09
2023-05-20T17:50:10.169Z,101818.47
2023-05-20T17:52:38.298Z,101804.78
2023-05-20T17:55:08.120Z,101795.72
2023-05-20T17:57:35.893Z,101808.50
2023-05-20T18:00:05.465Z,101801.78
2023-05-20T18:02:34.922Z,101808.81
2023-05-20T18:05:02.901Z,101803.41
2023-05-20T18:07:30.691Z,101802.66
2023-05-20T18:09:58.574Z,101793.59
2023-05-20T18:12:26.410Z,101805.59
2023-05-20T18:14:54.448Z,101807.22
2023-05-20T18:17:22.326Z,101809.31
2023-05-20T18:19:51.668Z,101807.97
2023-05-20T18:22:19.560Z,101803.22
2023-05-20T18:24:47.372Z,101810.22
2023-05-20T18:27:15.285Z,101805.16
2023-05-20T18:29:43.050Z,101801.69
2023-05-20T18:32:11.223Z,101797.78
2023-05-20T18:34:39.060Z,101797.97
2023-05-20T18:37:08.564Z,101801.38
2023-05-20T18:39:36.614Z,101802.13
2023-05-20T18:42:04.583Z,101815.75
2023-05-20T18:44:32.355Z,101808.56
2023-05-20T18:47:00.280Z,101807.13
2023-05-20T18:49:28.151Z,101804.63
2023-05-20T18:51:56.088Z,101809.75
2023-05-20T18:54:25.258Z,101814.69
2023-05-20T18:56:53.066Z,101804.72
2023-05-20T18:59:22.293Z,101815.00
2023-05-20T19:01:51.699Z,101819.16
2023-05-20T19:04:19.591Z,101820.03
2023-05-20T19:06:47.988Z,101813.78
2023-05-20T19:09:15.954Z,101821.97
2023-05-20T19:11:45.233Z,101818.47
2023-05-20T19:14:13.071Z,101821.09
2023-05-20T19:16:41.208Z,101815.84
2023-05-20T19:19:09.135Z,101816.53
2023-05-20T19:21:41.364Z,101809.31
2023-05-20T19:24:09.703Z,101810.31
2023-05-20T19:26:37.839Z,101811.41
2023-05-20T19:29:07.614Z,101812.91
2023-05-20T19:31:35.671Z,101808.66
2023-05-20T19:34:03.723Z,101809.75
2023-05-20T19:36:31.574Z,101808.66
2023-05-20T19:39:00.133Z,101804.84
2023-05-20T19:41:28.177Z,101809.09
2023-05-20T19:43:55.984Z,101799.72
2023-05-20T19:46:25.997Z,101796.00
2023-05-20T19:48:53.940Z,101807.91
2023-05-20T19:51:21.688Z,101814.09
2023-05-20T19:53:49.638Z,101820.38
2023-05-20T19:56:21.279Z,101816.56
2023-05-20T19:58:49.510Z,101820.16
2023-05-20T20:01:18.645Z,101815.44
2023-05-20T20:03:47.792Z,101819.69
2023-05-20T20:06:15.567Z,101819.47
2023-05-20T20:08:45.719Z,101813.34
2023-05-20T20:11:14.548Z,101810.28
2023-05-20T20:13:42.260Z,101811.72
2023-05-20T20:16:10.033Z,101818.25
2023-05-20T20:18:38.167Z,101815.16
2023-05-20T20:21:09.080Z,101815.16
2023-05-20T20:23:37.949Z,101817.41
2023-05-20T20:26:07.611Z,101819.06
2023-05-20T20:28:35.865Z,101822.22
2023-05-20T20:31:04.035Z,101817.13
2023-05-20T20:33:31.912Z,101817.53
2023-05-20T20:35:59.619Z,101808.91
2023-05-20T20:38:28.720Z,101810.84
2023-05-20T20:40:59.224Z,101807.25
2023-05-20T20:43:28.808Z,101801.34
2023-05-20T20:45:57.199Z,101794.16
2023-05-20T20:48:26.904Z,101791.84
2023-05-20T20:50:55.642Z,101791.16
2023-05-20T20:53:23.401Z,101785.34
2023-05-20T20:55:53.460Z,101789.91
2023-05-20T20:58:22.651Z,101783.88
2023-05-20T21:00:51.039Z,101777.78
2023-05-20T21:03:18.989Z,101778.09
2023-05-20T21:05:48.671Z,101778.59
2023-05-20T21:08:16.478Z,101782.16
2023-05-20T21:10:44.172Z,101774.72
2023-05-20T21:13:13.346Z,101774.88
2023-05-20T21:15:42.915Z,101776.66
2023-05-20T21:18:11.644Z,101771.22
2023-05-20T21:20:39.344Z,101767.53
2023-05-20T21:23:07.195Z,101774.16
2023-05-20T21:25:35.104Z,101773.75
2023-05-20T21:28:03.282Z,101772.09
2023-05-20T21:30:32.602Z,101768.13
2023-05-20T21:33:00.731Z,101765.50
2023-05-20T21:35:28.552Z,101767.53
2023-05-20T21:37:56.280Z,101755.13
2023-05-20T21:40:24.309Z,101760.56
2023-05-20T21:42:52.105Z,101757.94
2023-05-20T21:45:20.012Z,101762.78
2023-05-20T21:47:49.679Z,101757.28
2023-05-20T21:50:17.435Z,101746.03
2023-05-20T21:52:45.345Z,101744.03
2023-05-20T21:55:13.225Z,101734.56
2023-05-20T21:57:41.329Z,101744.38
2023-05-20T22:00:14.421Z,101740.97
2023-05-20T22:02:42.653Z,101741.06
2023-05-20T22:05:12.866Z,101733.38
2023-05-20T22:07:43.138Z,101732.59
2023-05-20T22:10:12.667Z,101735.88
2023-05-20T22:12:42.304Z,101729.88
2023-05-20T22:15:11.736Z,101727.75
2023-05-20T22:17:39.514Z,101719.78
2023-05-20T22:20:08.677Z,101713.97
2023-05-20T22:22:39.101Z,101712.22
2023-05-20T22:25:08.135Z,101707.97
2023-05-20T22:27:36.042Z,101705.59
2023-05-20T22:30:06.115Z,101706.75
2023-05-20T22:32:34.050Z,101707.91
2023-05-20T22:35:01.807Z,101704.63
2023-05-20T22:37:30.292Z,101696.28
2023-05-20T22:39:59.989Z,101683.69
2023-05-20T22:42:27.690Z,101679.91
2023-05-20T22:44:55.499Z,101674.41
2023-05-20T22:47:23.330Z,101671.97
2023-05-20T22:49:51.229Z,101668.19
2023-05-20T22:52:21.175Z,101659.84
2023-05-20T22:54:48.954Z,101660.78
2023-05-20T22:57:18.162Z,101660.31
2023-05-20T22:59:45.944Z,101654.69
2023-05-20T23:02:13.645Z,101644.88
2023-05-20T23:04:41.589Z,101648.00
2023-05-20T23:07:09.413Z,101653.34
2023-05-20T23:09:37.203Z,101649.75
2023-05-20T23:12:05.614Z,101645.88
2023-05-20T23:14:34.703Z,101642.50
2023-05-20T23:17:02.774Z,101641.13
2023-05-20T23:19:30.676Z,101647.53
2023-05-20T23:21:58.470Z,101643.06
2023-05-20T23:24:26.741Z,101640.75
2023-05-20T23:26:54.665Z,101632.69
2023-05-20T23:29:23.055Z,101641.81
2023-05-20T23:31:52.209Z,101631.91
2023-05-20T23:34:19.947Z,101628.53
2023-05-20T23:36:47.668Z,101616.81
2023-05-20T23:39:17.534Z,101613.13
2023-05-20T23:41:46.425Z,101610.41
2023-05-20T23:44:14.174Z,101612.75
2023-05-20T23:46:42.682Z,101605.66
2023-05-20T23:49:12.548Z,101606.34
2023-05-20T23:51:40.222Z,101608.75
2023-05-20T23:54:07.965Z,101596.66
2023-05-20T23:56:37.438Z,101598.47
2023-05-20T23:59:05.292Z,101585.00
